sensor_id;sensor_type;location;lat;lon;timestamp;P1;durP1;ratioP1;P2;durP2;ratioP2
64375;SDS011;50700;55.416;12.952;2022-12-29T00:01:18;5.97;;;3.33;;
64375;SDS011;50700;55.416;12.952;2022-12-29T00:03:47;10.23;;;2.80;;
64375;SDS011;50700;55.416;12.952;2022-12-29T00:06:14;7.57;;;3.00;;
64375;SDS011;50700;55.416;12.952;2022-12-29T00:08:40;8.75;;;2.55;;
64375;SDS011;50700;55.416;12.952;2022-12-29T00:11:07;9.75;;;3.65;;
64375;SDS011;50700;55.416;12.952;2022-12-29T00:13:33;10.02;;;2.67;;
64375;SDS011;50700;55.416;12.952;2022-12-29T00:16:18;10.35;;;3.10;;
64375;SDS011;50700;55.416;12.952;2022-12-29T00:18:45;7.30;;;2.72;;
64375;SDS011;50700;55.416;12.952;2022-12-29T00:21:14;9.70;;;3.13;;
64375;SDS011;50700;55.416;12.952;2022-12-29T00:24:00;10.55;;;3.17;;
64375;SDS011;50700;55.416;12.952;2022-12-29T00:27:04;10.47;;;3.33;;
64375;SDS011;50700;55.416;12.952;2022-12-29T00:29:53;12.20;;;3.70;;
64375;SDS011;50700;55.416;12.952;2022-12-29T00:32:38;7.80;;;3.40;;
64375;SDS011;50700;55.416;12.952;2022-12-29T00:35:28;6.63;;;3.42;;
64375;SDS011;50700;55.416;12.952;2022-12-29T00:37:55;12.60;;;3.90;;
64375;SDS011;50700;55.416;12.952;2022-12-29T00:40:41;9.82;;;3.28;;
64375;SDS011;50700;55.416;12.952;2022-12-29T00:43:26;8.70;;;3.38;;
64375;SDS011;50700;55.416;12.952;2022-12-29T00:46:11;10.55;;;3.60;;
64375;SDS011;50700;55.416;12.952;2022-12-29T00:48:37;9.88;;;3.65;;
64375;SDS011;50700;55.416;12.952;2022-12-29T00:51:22;8.82;;;3.47;;
64375;SDS011;50700;55.416;12.952;2022-12-29T00:53:48;6.65;;;3.63;;
64375;SDS011;50700;55.416;12.952;2022-12-29T00:56:15;10.23;;;3.58;;
64375;SDS011;50700;55.416;12.952;2022-12-29T00:58:41;8.27;;;3.85;;
64375;SDS011;50700;55.416;12.952;2022-12-29T01:01:07;10.88;;;3.40;;
64375;SDS011;50700;55.416;12.952;2022-12-29T01:03:35;7.40;;;3.10;;
64375;SDS011;50700;55.416;12.952;2022-12-29T01:06:06;9.05;;;2.97;;
64375;SDS011;50700;55.416;12.952;2022-12-29T01:08:32;11.02;;;3.47;;
64375;SDS011;50700;55.416;12.952;2022-12-29T01:11:05;8.15;;;3.08;;
64375;SDS011;50700;55.416;12.952;2022-12-29T01:13:32;7.28;;;3.10;;
64375;SDS011;50700;55.416;12.952;2022-12-29T01:15:59;6.53;;;3.15;;
64375;SDS011;50700;55.416;12.952;2022-12-29T01:18:25;4.75;;;2.92;;
64375;SDS011;50700;55.416;12.952;2022-12-29T01:20:57;6.40;;;2.85;;
64375;SDS011;50700;55.416;12.952;2022-12-29T01:23:24;7.15;;;3.20;;
64375;SDS011;50700;55.416;12.952;2022-12-29T01:25:50;9.02;;;3.17;;
64375;SDS011;50700;55.416;12.952;2022-12-29T01:28:16;7.80;;;3.40;;
64375;SDS011;50700;55.416;12.952;2022-12-29T01:30:43;7.10;;;2.75;;
64375;SDS011;50700;55.416;12.952;2022-12-29T01:33:09;10.10;;;3.30;;
64375;SDS011;50700;55.416;12.952;2022-12-29T01:35:35;6.15;;;3.08;;
64375;SDS011;50700;55.416;12.952;2022-12-29T01:38:01;8.32;;;2.75;;
64375;SDS011;50700;55.416;12.952;2022-12-29T01:40:27;5.70;;;3.42;;
64375;SDS011;50700;55.416;12.952;2022-12-29T01:42:54;9.05;;;3.33;;
64375;SDS011;50700;55.416;12.952;2022-12-29T01:45:20;8.57;;;3.15;;
64375;SDS011;50700;55.416;12.952;2022-12-29T01:47:52;5.63;;;3.13;;
64375;SDS011;50700;55.416;12.952;2022-12-29T01:50:26;5.15;;;2.85;;
64375;SDS011;50700;55.416;12.952;2022-12-29T01:55:24;6.68;;;3.00;;
64375;SDS011;50700;55.416;12.952;2022-12-29T01:57:51;6.90;;;3.30;;
64375;SDS011;50700;55.416;12.952;2022-12-29T02:00:19;8.65;;;3.70;;
64375;SDS011;50700;55.416;12.952;2022-12-29T02:02:46;8.27;;;3.00;;
64375;SDS011;50700;55.416;12.952;2022-12-29T02:05:15;10.57;;;3.45;;
64375;SDS011;50700;55.416;12.952;2022-12-29T02:07:44;4.38;;;2.78;;
64375;SDS011;50700;55.416;12.952;2022-12-29T02:10:10;6.78;;;3.15;;
64375;SDS011;50700;55.416;12.952;2022-12-29T02:12:37;6.97;;;2.80;;
64375;SDS011;50700;55.416;12.952;2022-12-29T02:15:04;6.78;;;3.13;;
64375;SDS011;50700;55.416;12.952;2022-12-29T02:20:13;5.63;;;3.05;;
64375;SDS011;50700;55.416;12.952;2022-12-29T02:28:10;7.22;;;3.15;;
64375;SDS011;50700;55.416;12.952;2022-12-29T02:30:46;5.80;;;3.42;;
64375;SDS011;50700;55.416;12.952;2022-12-29T02:33:34;5.82;;;2.95;;
64375;SDS011;50700;55.416;12.952;2022-12-29T02:36:29;8.38;;;3.03;;
64375;SDS011;50700;55.416;12.952;2022-12-29T02:49:11;6.90;;;3.13;;
64375;SDS011;50700;55.416;12.952;2022-12-29T02:51:53;5.63;;;2.67;;
64375;SDS011;50700;55.416;12.952;2022-12-29T02:54:22;11.43;;;3.75;;
64375;SDS011;50700;55.416;12.952;2022-12-29T02:59:54;9.87;;;3.97;;
64375;SDS011;50700;55.416;12.952;2022-12-29T03:10:22;7.65;;;3.40;;
64375;SDS011;50700;55.416;12.952;2022-12-29T03:13:35;7.93;;;3.60;;
64375;SDS011;50700;55.416;12.952;2022-12-29T03:18:51;10.25;;;4.50;;
64375;SDS011;50700;55.416;12.952;2022-12-29T03:21:27;6.43;;;3.45;;
64375;SDS011;50700;55.416;12.952;2022-12-29T03:24:15;5.82;;;3.90;;
64375;SDS011;50700;55.416;12.952;2022-12-29T03:26:43;5.53;;;3.33;;
64375;SDS011;50700;55.416;12.952;2022-12-29T03:29:11;7.30;;;3.90;;
64375;SDS011;50700;55.416;12.952;2022-12-29T03:31:38;9.73;;;4.15;;
64375;SDS011;50700;55.416;12.952;2022-12-29T03:34:04;11.02;;;3.75;;
64375;SDS011;50700;55.416;12.952;2022-12-29T03:36:33;5.68;;;3.50;;
64375;SDS011;50700;55.416;12.952;2022-12-29T03:39:02;9.10;;;4.03;;
64375;SDS011;50700;55.416;12.952;2022-12-29T03:41:30;5.82;;;3.58;;
64375;SDS011;50700;55.416;12.952;2022-12-29T03:43:57;5.85;;;3.55;;
64375;SDS011;50700;55.416;12.952;2022-12-29T03:46:24;8.45;;;3.70;;
64375;SDS011;50700;55.416;12.952;2022-12-29T03:48:50;8.05;;;4.10;;
64375;SDS011;50700;55.416;12.952;2022-12-29T03:51:16;8.85;;;4.40;;
64375;SDS011;50700;55.416;12.952;2022-12-29T03:53:42;13.55;;;3.97;;
64375;SDS011;50700;55.416;12.952;2022-12-29T03:56:08;8.45;;;4.07;;
64375;SDS011;50700;55.416;12.952;2022-12-29T03:58:34;6.88;;;3.80;;
64375;SDS011;50700;55.416;12.952;2022-12-29T04:01:01;8.43;;;3.72;;
64375;SDS011;50700;55.416;12.952;2022-12-29T04:03:27;16.00;;;4.53;;
64375;SDS011;50700;55.416;12.952;2022-12-29T04:05:53;6.40;;;3.97;;
64375;SDS011;50700;55.416;12.952;2022-12-29T04:08:19;6.60;;;4.18;;
64375;SDS011;50700;55.416;12.952;2022-12-29T04:10:45;10.75;;;4.45;;
64375;SDS011;50700;55.416;12.952;2022-12-29T04:13:14;7.57;;;4.28;;
64375;SDS011;50700;55.416;12.952;2022-12-29T04:15:40;7.53;;;4.15;;
64375;SDS011;50700;55.416;12.952;2022-12-29T04:18:07;12.18;;;4.80;;
64375;SDS011;50700;55.416;12.952;2022-12-29T04:20:34;11.43;;;4.30;;
64375;SDS011;50700;55.416;12.952;2022-12-29T04:23:18;9.25;;;3.60;;
64375;SDS011;50700;55.416;12.952;2022-12-29T04:25:45;9.07;;;3.97;;
64375;SDS011;50700;55.416;12.952;2022-12-29T04:28:15;9.77;;;4.15;;
64375;SDS011;50700;55.416;12.952;2022-12-29T04:30:42;10.25;;;4.35;;
64375;SDS011;50700;55.416;12.952;2022-12-29T04:33:09;8.88;;;4.03;;
64375;SDS011;50700;55.416;12.952;2022-12-29T04:35:35;11.18;;;4.22;;
64375;SDS011;50700;55.416;12.952;2022-12-29T04:38:02;7.65;;;3.90;;
64375;SDS011;50700;55.416;12.952;2022-12-29T04:40:28;10.68;;;5.20;;
64375;SDS011;50700;55.416;12.952;2022-12-29T04:42:54;9.48;;;4.05;;
64375;SDS011;50700;55.416;12.952;2022-12-29T04:45:21;8.63;;;3.67;;
64375;SDS011;50700;55.416;12.952;2022-12-29T04:47:47;15.75;;;5.20;;
64375;SDS011;50700;55.416;12.952;2022-12-29T04:50:13;11.55;;;4.93;;
64375;SDS011;50700;55.416;12.952;2022-12-29T04:52:39;10.88;;;4.35;;
64375;SDS011;50700;55.416;12.952;2022-12-29T04:55:05;15.60;;;4.47;;
64375;SDS011;50700;55.416;12.952;2022-12-29T04:57:32;12.45;;;4.03;;
64375;SDS011;50700;55.416;12.952;2022-12-29T04:59:58;10.10;;;4.43;;
64375;SDS011;50700;55.416;12.952;2022-12-29T05:02:24;11.73;;;5.28;;
64375;SDS011;50700;55.416;12.952;2022-12-29T05:04:50;7.90;;;4.40;;
64375;SDS011;50700;55.416;12.952;2022-12-29T05:07:16;14.75;;;5.05;;
64375;SDS011;50700;55.416;12.952;2022-12-29T05:09:43;11.75;;;4.30;;
64375;SDS011;50700;55.416;12.952;2022-12-29T05:12:09;9.05;;;5.13;;
64375;SDS011;50700;55.416;12.952;2022-12-29T05:14:35;11.63;;;4.30;;
64375;SDS011;50700;55.416;12.952;2022-12-29T05:17:01;9.80;;;4.95;;
64375;SDS011;50700;55.416;12.952;2022-12-29T05:19:27;8.88;;;5.03;;
64375;SDS011;50700;55.416;12.952;2022-12-29T05:21:53;6.82;;;4.40;;
64375;SDS011;50700;55.416;12.952;2022-12-29T05:24:20;13.00;;;4.90;;
64375;SDS011;50700;55.416;12.952;2022-12-29T05:26:46;12.18;;;4.90;;
64375;SDS011;50700;55.416;12.952;2022-12-29T05:29:12;8.18;;;4.45;;
64375;SDS011;50700;55.416;12.952;2022-12-29T05:31:38;7.82;;;4.80;;
64375;SDS011;50700;55.416;12.952;2022-12-29T05:34:04;14.68;;;5.05;;
64375;SDS011;50700;55.416;12.952;2022-12-29T05:36:31;8.02;;;4.68;;
64375;SDS011;50700;55.416;12.952;2022-12-29T05:38:57;8.30;;;5.07;;
64375;SDS011;50700;55.416;12.952;2022-12-29T05:41:23;9.82;;;4.75;;
64375;SDS011;50700;55.416;12.952;2022-12-29T05:43:50;11.32;;;5.10;;
64375;SDS011;50700;55.416;12.952;2022-12-29T05:46:16;18.60;;;5.53;;
64375;SDS011;50700;55.416;12.952;2022-12-29T05:48:42;8.50;;;5.32;;
64375;SDS011;50700;55.416;12.952;2022-12-29T05:51:08;7.55;;;4.82;;
64375;SDS011;50700;55.416;12.952;2022-12-29T05:53:34;5.85;;;4.13;;
64375;SDS011;50700;55.416;12.952;2022-12-29T05:56:00;12.63;;;4.60;;
64375;SDS011;50700;55.416;12.952;2022-12-29T05:58:27;10.35;;;4.65;;
64375;SDS011;50700;55.416;12.952;2022-12-29T06:00:53;11.07;;;4.50;;
64375;SDS011;50700;55.416;12.952;2022-12-29T06:03:19;6.47;;;4.15;;
64375;SDS011;50700;55.416;12.952;2022-12-29T06:05:45;10.73;;;5.22;;
64375;SDS011;50700;55.416;12.952;2022-12-29T06:08:12;7.15;;;4.00;;
64375;SDS011;50700;55.416;12.952;2022-12-29T06:10:38;9.20;;;4.50;;
64375;SDS011;50700;55.416;12.952;2022-12-29T06:13:04;8.55;;;4.03;;
64375;SDS011;50700;55.416;12.952;2022-12-29T06:15:31;9.65;;;4.28;;
64375;SDS011;50700;55.416;12.952;2022-12-29T06:17:57;11.60;;;4.65;;
64375;SDS011;50700;55.416;12.952;2022-12-29T06:20:23;10.85;;;5.07;;
64375;SDS011;50700;55.416;12.952;2022-12-29T06:22:49;6.72;;;4.07;;
64375;SDS011;50700;55.416;12.952;2022-12-29T06:25:16;10.25;;;4.28;;
64375;SDS011;50700;55.416;12.952;2022-12-29T06:27:42;10.05;;;4.40;;
64375;SDS011;50700;55.416;12.952;2022-12-29T06:30:09;7.30;;;4.75;;
64375;SDS011;50700;55.416;12.952;2022-12-29T06:32:35;9.50;;;4.55;;
64375;SDS011;50700;55.416;12.952;2022-12-29T06:35:02;11.52;;;4.47;;
64375;SDS011;50700;55.416;12.952;2022-12-29T06:37:29;9.40;;;4.30;;
64375;SDS011;50700;55.416;12.952;2022-12-29T06:39:55;9.63;;;4.30;;
64375;SDS011;50700;55.416;12.952;2022-12-29T06:42:21;7.43;;;4.75;;
64375;SDS011;50700;55.416;12.952;2022-12-29T06:44:47;7.82;;;4.38;;
64375;SDS011;50700;55.416;12.952;2022-12-29T06:47:14;10.15;;;4.22;;
64375;SDS011;50700;55.416;12.952;2022-12-29T06:49:40;10.27;;;3.78;;
64375;SDS011;50700;55.416;12.952;2022-12-29T06:52:06;9.85;;;3.95;;
64375;SDS011;50700;55.416;12.952;2022-12-29T06:54:33;11.30;;;3.88;;
64375;SDS011;50700;55.416;12.952;2022-12-29T06:56:59;9.68;;;4.43;;
64375;SDS011;50700;55.416;12.952;2022-12-29T06:59:25;8.40;;;3.75;;
64375;SDS011;50700;55.416;12.952;2022-12-29T07:01:51;8.40;;;3.75;;
64375;SDS011;50700;55.416;12.952;2022-12-29T07:04:18;9.45;;;3.72;;
64375;SDS011;50700;55.416;12.952;2022-12-29T07:06:44;11.15;;;3.67;;
64375;SDS011;50700;55.416;12.952;2022-12-29T07:09:10;6.85;;;3.40;;
64375;SDS011;50700;55.416;12.952;2022-12-29T07:11:36;8.25;;;3.13;;
64375;SDS011;50700;55.416;12.952;2022-12-29T07:14:02;5.90;;;3.45;;
64375;SDS011;50700;55.416;12.952;2022-12-29T07:16:29;9.77;;;3.63;;
64375;SDS011;50700;55.416;12.952;2022-12-29T07:18:55;8.00;;;3.50;;
64375;SDS011;50700;55.416;12.952;2022-12-29T07:21:22;7.65;;;3.72;;
64375;SDS011;50700;55.416;12.952;2022-12-29T07:23:48;6.75;;;3.95;;
64375;SDS011;50700;55.416;12.952;2022-12-29T07:26:15;6.38;;;3.75;;
64375;SDS011;50700;55.416;12.952;2022-12-29T07:28:43;13.55;;;3.70;;
64375;SDS011;50700;55.416;12.952;2022-12-29T07:31:12;7.25;;;3.33;;
64375;SDS011;50700;55.416;12.952;2022-12-29T07:33:40;5.13;;;3.25;;
64375;SDS011;50700;55.416;12.952;2022-12-29T07:36:06;6.15;;;3.38;;
64375;SDS011;50700;55.416;12.952;2022-12-29T07:38:32;7.22;;;3.28;;
64375;SDS011;50700;55.416;12.952;2022-12-29T07:40:59;6.13;;;3.20;;
64375;SDS011;50700;55.416;12.952;2022-12-29T07:43:25;4.60;;;2.53;;
64375;SDS011;50700;55.416;12.952;2022-12-29T07:45:51;5.68;;;2.95;;
64375;SDS011;50700;55.416;12.952;2022-12-29T07:48:17;5.95;;;2.67;;
64375;SDS011;50700;55.416;12.952;2022-12-29T07:50:43;7.15;;;2.78;;
64375;SDS011;50700;55.416;12.952;2022-12-29T07:53:10;6.05;;;2.92;;
64375;SDS011;50700;55.416;12.952;2022-12-29T07:55:36;4.72;;;2.35;;
64375;SDS011;50700;55.416;12.952;2022-12-29T07:58:02;7.68;;;2.67;;
64375;SDS011;50700;55.416;12.952;2022-12-29T08:00:29;3.85;;;2.70;;
64375;SDS011;50700;55.416;12.952;2022-12-29T08:02:55;11.90;;;2.88;;
64375;SDS011;50700;55.416;12.952;2022-12-29T08:05:21;5.78;;;2.42;;
64375;SDS011;50700;55.416;12.952;2022-12-29T08:07:47;13.15;;;2.90;;
64375;SDS011;50700;55.416;12.952;2022-12-29T08:10:14;6.18;;;2.70;;
64375;SDS011;50700;55.416;12.952;2022-12-29T08:12:40;8.30;;;3.10;;
64375;SDS011;50700;55.416;12.952;2022-12-29T08:15:07;11.10;;;2.63;;
64375;SDS011;50700;55.416;12.952;2022-12-29T08:17:34;9.70;;;2.90;;
64375;SDS011;50700;55.416;12.952;2022-12-29T08:20:00;5.80;;;2.42;;
64375;SDS011;50700;55.416;12.952;2022-12-29T08:22:27;6.13;;;3.13;;
64375;SDS011;50700;55.416;12.952;2022-12-29T08:24:53;7.85;;;3.05;;
64375;SDS011;50700;55.416;12.952;2022-12-29T08:27:19;6.65;;;2.40;;
64375;SDS011;50700;55.416;12.952;2022-12-29T08:29:46;9.00;;;3.08;;
64375;SDS011;50700;55.416;12.952;2022-12-29T08:32:12;6.07;;;2.60;;
64375;SDS011;50700;55.416;12.952;2022-12-29T08:34:38;8.88;;;2.55;;
64375;SDS011;50700;55.416;12.952;2022-12-29T08:37:04;5.03;;;2.35;;
64375;SDS011;50700;55.416;12.952;2022-12-29T08:39:31;11.38;;;2.90;;
64375;SDS011;50700;55.416;12.952;2022-12-29T08:41:57;11.48;;;3.10;;
64375;SDS011;50700;55.416;12.952;2022-12-29T08:44:23;7.43;;;2.53;;
64375;SDS011;50700;55.416;12.952;2022-12-29T08:46:49;9.43;;;2.55;;
64375;SDS011;50700;55.416;12.952;2022-12-29T08:49:16;6.03;;;2.35;;
64375;SDS011;50700;55.416;12.952;2022-12-29T08:51:42;8.45;;;2.38;;
64375;SDS011;50700;55.416;12.952;2022-12-29T08:54:08;3.08;;;1.85;;
64375;SDS011;50700;55.416;12.952;2022-12-29T08:56:35;11.88;;;2.17;;
64375;SDS011;50700;55.416;12.952;2022-12-29T08:59:01;8.65;;;2.80;;
64375;SDS011;50700;55.416;12.952;2022-12-29T09:01:27;6.95;;;2.33;;
64375;SDS011;50700;55.416;12.952;2022-12-29T09:03:55;7.38;;;2.75;;
64375;SDS011;50700;55.416;12.952;2022-12-29T09:06:21;10.10;;;2.70;;
64375;SDS011;50700;55.416;12.952;2022-12-29T09:08:47;4.72;;;2.20;;
64375;SDS011;50700;55.416;12.952;2022-12-29T09:13:40;5.80;;;2.42;;
64375;SDS011;50700;55.416;12.952;2022-12-29T09:16:06;7.00;;;2.33;;
64375;SDS011;50700;55.416;12.952;2022-12-29T09:18:33;6.85;;;2.50;;
64375;SDS011;50700;55.416;12.952;2022-12-29T09:21:00;8.82;;;2.50;;
64375;SDS011;50700;55.416;12.952;2022-12-29T09:23:27;5.50;;;2.00;;
64375;SDS011;50700;55.416;12.952;2022-12-29T09:25:53;5.78;;;2.45;;
64375;SDS011;50700;55.416;12.952;2022-12-29T09:28:20;6.72;;;3.17;;
64375;SDS011;50700;55.416;12.952;2022-12-29T09:30:46;6.15;;;2.72;;
64375;SDS011;50700;55.416;12.952;2022-12-29T09:33:13;5.70;;;2.83;;
64375;SDS011;50700;55.416;12.952;2022-12-29T09:35:42;5.57;;;2.70;;
64375;SDS011;50700;55.416;12.952;2022-12-29T09:38:09;5.20;;;2.50;;
64375;SDS011;50700;55.416;12.952;2022-12-29T09:40:35;5.63;;;2.63;;
64375;SDS011;50700;55.416;12.952;2022-12-29T09:43:42;8.43;;;2.63;;
64375;SDS011;50700;55.416;12.952;2022-12-29T09:48:23;5.50;;;2.70;;
64375;SDS011;50700;55.416;12.952;2022-12-29T09:50:52;4.50;;;2.58;;
64375;SDS011;50700;55.416;12.952;2022-12-29T09:53:31;5.13;;;2.70;;
64375;SDS011;50700;55.416;12.952;2022-12-29T09:56:03;3.95;;;2.28;;
64375;SDS011;50700;55.416;12.952;2022-12-29T10:03:52;7.15;;;2.70;;
64375;SDS011;50700;55.416;12.952;2022-12-29T10:11:33;7.05;;;2.40;;
64375;SDS011;50700;55.416;12.952;2022-12-29T10:24:59;4.80;;;2.47;;
64375;SDS011;50700;55.416;12.952;2022-12-29T10:27:30;9.77;;;2.90;;
64375;SDS011;50700;55.416;12.952;2022-12-29T10:29:57;6.95;;;3.30;;
64375;SDS011;50700;55.416;12.952;2022-12-29T10:34:51;9.18;;;2.42;;
64375;SDS011;50700;55.416;12.952;2022-12-29T10:39:52;5.45;;;2.20;;
64375;SDS011;50700;55.416;12.952;2022-12-29T10:44:45;5.82;;;2.63;;
64375;SDS011;50700;55.416;12.952;2022-12-29T10:47:18;5.88;;;2.60;;
64375;SDS011;50700;55.416;12.952;2022-12-29T10:49:46;4.03;;;2.28;;
64375;SDS011;50700;55.416;12.952;2022-12-29T10:52:13;4.47;;;2.10;;
64375;SDS011;50700;55.416;12.952;2022-12-29T10:54:45;4.53;;;2.70;;
64375;SDS011;50700;55.416;12.952;2022-12-29T10:59:47;7.93;;;2.20;;
64375;SDS011;50700;55.416;12.952;2022-12-29T11:02:22;6.97;;;2.10;;
64375;SDS011;50700;55.416;12.952;2022-12-29T11:07:21;4.85;;;2.17;;
64375;SDS011;50700;55.416;12.952;2022-12-29T11:09:48;5.25;;;2.30;;
64375;SDS011;50700;55.416;12.952;2022-12-29T11:12:18;2.42;;;1.85;;
64375;SDS011;50700;55.416;12.952;2022-12-29T11:14:44;5.80;;;1.95;;
64375;SDS011;50700;55.416;12.952;2022-12-29T11:17:14;6.10;;;2.17;;
64375;SDS011;50700;55.416;12.952;2022-12-29T11:19:41;4.75;;;2.35;;
64375;SDS011;50700;55.416;12.952;2022-12-29T11:22:20;3.65;;;2.00;;
64375;SDS011;50700;55.416;12.952;2022-12-29T11:24:47;5.55;;;1.80;;
64375;SDS011;50700;55.416;12.952;2022-12-29T11:27:18;4.20;;;1.90;;
64375;SDS011;50700;55.416;12.952;2022-12-29T11:29:48;4.70;;;1.80;;
64375;SDS011;50700;55.416;12.952;2022-12-29T11:32:19;6.03;;;2.45;;
64375;SDS011;50700;55.416;12.952;2022-12-29T11:34:46;2.58;;;1.75;;
64375;SDS011;50700;55.416;12.952;2022-12-29T11:39:52;9.60;;;2.55;;
64375;SDS011;50700;55.416;12.952;2022-12-29T11:42:41;4.43;;;2.10;;
64375;SDS011;50700;55.416;12.952;2022-12-29T11:45:19;3.20;;;1.95;;
64375;SDS011;50700;55.416;12.952;2022-12-29T11:47:53;3.67;;;2.03;;
64375;SDS011;50700;55.416;12.952;2022-12-29T11:50:20;3.67;;;2.15;;
64375;SDS011;50700;55.416;12.952;2022-12-29T11:52:48;11.57;;;2.13;;
64375;SDS011;50700;55.416;12.952;2022-12-29T11:55:18;5.18;;;2.33;;
64375;SDS011;50700;55.416;12.952;2022-12-29T11:57:47;4.17;;;1.87;;
64375;SDS011;50700;55.416;12.952;2022-12-29T12:00:14;7.45;;;1.98;;
64375;SDS011;50700;55.416;12.952;2022-12-29T12:07:45;3.72;;;1.58;;
64375;SDS011;50700;55.416;12.952;2022-12-29T12:10:15;4.93;;;1.90;;
64375;SDS011;50700;55.416;12.952;2022-12-29T12:12:53;7.28;;;1.75;;
64375;SDS011;50700;55.416;12.952;2022-12-29T12:15:23;5.25;;;1.90;;
64375;SDS011;50700;55.416;12.952;2022-12-29T12:17:53;7.95;;;1.92;;
64375;SDS011;50700;55.416;12.952;2022-12-29T12:20:38;5.65;;;1.60;;
64375;SDS011;50700;55.416;12.952;2022-12-29T12:23:19;6.70;;;2.13;;
64375;SDS011;50700;55.416;12.952;2022-12-29T12:25:58;6.43;;;1.65;;
64375;SDS011;50700;55.416;12.952;2022-12-29T12:30:53;6.05;;;1.83;;
64375;SDS011;50700;55.416;12.952;2022-12-29T12:35:57;6.23;;;2.30;;
64375;SDS011;50700;55.416;12.952;2022-12-29T12:43:39;5.05;;;1.60;;
64375;SDS011;50700;55.416;12.952;2022-12-29T12:46:18;5.38;;;1.70;;
64375;SDS011;50700;55.416;12.952;2022-12-29T12:54:01;2.83;;;1.70;;
64375;SDS011;50700;55.416;12.952;2022-12-29T13:02:01;4.35;;;1.90;;
64375;SDS011;50700;55.416;12.952;2022-12-29T13:07:16;3.25;;;1.42;;
64375;SDS011;50700;55.416;12.952;2022-12-29T13:10:05;7.07;;;1.60;;
64375;SDS011;50700;55.416;12.952;2022-12-29T13:12:47;4.97;;;1.55;;
64375;SDS011;50700;55.416;12.952;2022-12-29T13:17:58;4.97;;;1.33;;
64375;SDS011;50700;55.416;12.952;2022-12-29T13:20:31;9.30;;;1.42;;
64375;SDS011;50700;55.416;12.952;2022-12-29T13:28:06;2.67;;;1.58;;
64375;SDS011;50700;55.416;12.952;2022-12-29T13:30:41;3.50;;;1.40;;
64375;SDS011;50700;55.416;12.952;2022-12-29T13:36:02;7.83;;;1.40;;
64375;SDS011;50700;55.416;12.952;2022-12-29T13:41:00;4.75;;;1.45;;
64375;SDS011;50700;55.416;12.952;2022-12-29T13:43:27;6.45;;;1.60;;
64375;SDS011;50700;55.416;12.952;2022-12-29T13:45:59;5.20;;;1.52;;
64375;SDS011;50700;55.416;12.952;2022-12-29T13:49:10;6.95;;;1.52;;
64375;SDS011;50700;55.416;12.952;2022-12-29T13:51:15;4.13;;;1.40;;
64375;SDS011;50700;55.416;12.952;2022-12-29T13:53:49;7.63;;;1.67;;
64375;SDS011;50700;55.416;12.952;2022-12-29T13:56:31;4.93;;;1.20;;
64375;SDS011;50700;55.416;12.952;2022-12-29T13:59:05;2.28;;;1.15;;
64375;SDS011;50700;55.416;12.952;2022-12-29T14:01:36;2.67;;;1.60;;
64375;SDS011;50700;55.416;12.952;2022-12-29T14:04:13;4.57;;;1.80;;
64375;SDS011;50700;55.416;12.952;2022-12-29T14:06:39;3.72;;;1.55;;
64375;SDS011;50700;55.416;12.952;2022-12-29T14:09:32;3.75;;;1.60;;
64375;SDS011;50700;55.416;12.952;2022-12-29T14:12:01;2.70;;;1.48;;
64375;SDS011;50700;55.416;12.952;2022-12-29T14:14:28;4.75;;;1.65;;
64375;SDS011;50700;55.416;12.952;2022-12-29T14:16:56;4.80;;;1.85;;
64375;SDS011;50700;55.416;12.952;2022-12-29T14:19:36;8.77;;;2.00;;
64375;SDS011;50700;55.416;12.952;2022-12-29T14:22:06;4.20;;;1.70;;
64375;SDS011;50700;55.416;12.952;2022-12-29T14:34:47;5.20;;;2.05;;
64375;SDS011;50700;55.416;12.952;2022-12-29T14:37:23;9.88;;;2.20;;
64375;SDS011;50700;55.416;12.952;2022-12-29T14:40:02;6.25;;;2.05;;
64375;SDS011;50700;55.416;12.952;2022-12-29T14:42:29;5.05;;;1.60;;
64375;SDS011;50700;55.416;12.952;2022-12-29T14:45:03;7.32;;;2.17;;
64375;SDS011;50700;55.416;12.952;2022-12-29T14:52:49;5.28;;;1.75;;
64375;SDS011;50700;55.416;12.952;2022-12-29T14:57:44;7.93;;;2.22;;
64375;SDS011;50700;55.416;12.952;2022-12-29T15:02:44;9.80;;;2.13;;
64375;SDS011;50700;55.416;12.952;2022-12-29T15:05:25;10.38;;;2.25;;
64375;SDS011;50700;55.416;12.952;2022-12-29T15:07:53;8.85;;;2.30;;
64375;SDS011;50700;55.416;12.952;2022-12-29T15:10:21;8.82;;;2.28;;
64375;SDS011;50700;55.416;12.952;2022-12-29T15:12:53;6.18;;;1.77;;
64375;SDS011;50700;55.416;12.952;2022-12-29T15:15:26;12.00;;;2.28;;
64375;SDS011;50700;55.416;12.952;2022-12-29T15:17:55;12.98;;;2.60;;
64375;SDS011;50700;55.416;12.952;2022-12-29T15:22:54;7.90;;;2.35;;
64375;SDS011;50700;55.416;12.952;2022-12-29T15:25:21;9.52;;;2.20;;
64375;SDS011;50700;55.416;12.952;2022-12-29T15:27:51;8.63;;;2.55;;
64375;SDS011;50700;55.416;12.952;2022-12-29T15:30:17;11.88;;;3.47;;
64375;SDS011;50700;55.416;12.952;2022-12-29T15:32:44;7.95;;;2.28;;
64375;SDS011;50700;55.416;12.952;2022-12-29T15:37:56;11.65;;;2.65;;
64375;SDS011;50700;55.416;12.952;2022-12-29T15:40:23;6.93;;;2.00;;
64375;SDS011;50700;55.416;12.952;2022-12-29T15:43:03;5.38;;;1.38;;
64375;SDS011;50700;55.416;12.952;2022-12-29T15:45:33;7.93;;;2.33;;
64375;SDS011;50700;55.416;12.952;2022-12-29T15:47:59;10.15;;;2.40;;
64375;SDS011;50700;55.416;12.952;2022-12-29T15:50:27;5.25;;;1.80;;
64375;SDS011;50700;55.416;12.952;2022-12-29T15:52:54;5.57;;;2.03;;
64375;SDS011;50700;55.416;12.952;2022-12-29T15:55:25;8.15;;;1.98;;
64375;SDS011;50700;55.416;12.952;2022-12-29T15:57:57;9.50;;;2.72;;
64375;SDS011;50700;55.416;12.952;2022-12-29T16:00:28;3.65;;;1.80;;
64375;SDS011;50700;55.416;12.952;2022-12-29T16:02:55;7.53;;;1.98;;
64375;SDS011;50700;55.416;12.952;2022-12-29T16:05:23;3.00;;;1.80;;
64375;SDS011;50700;55.416;12.952;2022-12-29T16:07:56;10.35;;;2.45;;
64375;SDS011;50700;55.416;12.952;2022-12-29T16:10:33;13.43;;;2.33;;
64375;SDS011;50700;55.416;12.952;2022-12-29T16:13:02;11.93;;;2.20;;
64375;SDS011;50700;55.416;12.952;2022-12-29T16:15:29;5.97;;;1.70;;
64375;SDS011;50700;55.416;12.952;2022-12-29T16:17:56;3.38;;;1.65;;
64375;SDS011;50700;55.416;12.952;2022-12-29T16:20:31;5.80;;;1.77;;
64375;SDS011;50700;55.416;12.952;2022-12-29T16:22:58;6.55;;;1.83;;
64375;SDS011;50700;55.416;12.952;2022-12-29T16:25:28;4.38;;;1.67;;
64375;SDS011;50700;55.416;12.952;2022-12-29T16:27:56;5.63;;;2.50;;
64375;SDS011;50700;55.416;12.952;2022-12-29T16:30:25;6.75;;;2.42;;
64375;SDS011;50700;55.416;12.952;2022-12-29T16:32:53;9.57;;;2.42;;
64375;SDS011;50700;55.416;12.952;2022-12-29T16:35:21;3.10;;;1.83;;
64375;SDS011;50700;55.416;12.952;2022-12-29T16:37:48;5.95;;;1.80;;
64375;SDS011;50700;55.416;12.952;2022-12-29T16:42:45;6.85;;;1.80;;
64375;SDS011;50700;55.416;12.952;2022-12-29T16:47:48;7.80;;;1.97;;
64375;SDS011;50700;55.416;12.952;2022-12-29T16:50:17;9.27;;;2.53;;
64375;SDS011;50700;55.416;12.952;2022-12-29T16:52:49;9.68;;;1.80;;
64375;SDS011;50700;55.416;12.952;2022-12-29T16:55:17;9.02;;;1.95;;
64375;SDS011;50700;55.416;12.952;2022-12-29T16:57:44;10.15;;;1.83;;
64375;SDS011;50700;55.416;12.952;2022-12-29T17:00:19;8.82;;;1.98;;
64375;SDS011;50700;55.416;12.952;2022-12-29T17:02:46;7.45;;;2.35;;
64375;SDS011;50700;55.416;12.952;2022-12-29T17:05:15;16.30;;;2.72;;
64375;SDS011;50700;55.416;12.952;2022-12-29T17:07:41;7.20;;;1.95;;
64375;SDS011;50700;55.416;12.952;2022-12-29T17:10:08;8.95;;;1.98;;
64375;SDS011;50700;55.416;12.952;2022-12-29T17:12:34;7.90;;;2.20;;